sensor_id;sensor_type;location;lat;lon;timestamp;P1;durP1;ratioP1;P2;durP2;ratioP2
9524;SDS011;15940;48.734;9.112;2023-05-02T00:01:53;7.07;;;6.33;;
9524;SDS011;15940;48.734;9.112;2023-05-02T00:04:21;6.57;;;6.00;;
9524;SDS011;15940;48.734;9.112;2023-05-02T00:06:48;7.00;;;6.33;;
9524;SDS011;15940;48.734;9.112;2023-05-02T00:09:16;6.53;;;5.97;;
9524;SDS011;15940;48.734;9.112;2023-05-02T00:11:44;6.77;;;6.17;;
9524;SDS011;15940;48.734;9.112;2023-05-02T00:14:11;7.03;;;6.30;;
9524;SDS011;15940;48.734;9.112;2023-05-02T00:16:38;8.10;;;6.77;;
9524;SDS011;15940;48.734;9.112;2023-05-02T00:19:05;6.73;;;6.13;;
9524;SDS011;15940;48.734;9.112;2023-05-02T00:21:32;7.40;;;6.70;;
9524;SDS011;15940;48.734;9.112;2023-05-02T00:23:59;7.37;;;6.00;;
9524;SDS011;15940;48.734;9.112;2023-05-02T00:26:26;7.27;;;6.57;;
9524;SDS011;15940;48.734;9.112;2023-05-02T00:28:54;7.37;;;6.67;;
9524;SDS011;15940;48.734;9.112;2023-05-02T00:31:22;7.23;;;6.63;;
9524;SDS011;15940;48.734;9.112;2023-05-02T00:33:49;7.23;;;6.53;;
9524;SDS011;15940;48.734;9.112;2023-05-02T00:36:17;7.57;;;6.70;;
9524;SDS011;15940;48.734;9.112;2023-05-02T00:38:45;7.03;;;6.43;;
9524;SDS011;15940;48.734;9.112;2023-05-02T00:41:12;7.10;;;6.50;;
9524;SDS011;15940;48.734;9.112;2023-05-02T00:43:39;7.40;;;6.70;;
9524;SDS011;15940;48.734;9.112;2023-05-02T00:46:07;7.50;;;6.73;;
9524;SDS011;15940;48.734;9.112;2023-05-02T00:48:36;7.53;;;6.83;;
9524;SDS011;15940;48.734;9.112;2023-05-02T00:51:03;7.83;;;6.73;;
9524;SDS011;15940;48.734;9.112;2023-05-02T00:53:32;7.73;;;7.03;;
9524;SDS011;15940;48.734;9.112;2023-05-02T00:56:00;7.20;;;6.60;;
9524;SDS011;15940;48.734;9.112;2023-05-02T00:58:28;7.10;;;6.50;;
9524;SDS011;15940;48.734;9.112;2023-05-02T01:00:58;7.43;;;6.73;;
9524;SDS011;15940;48.734;9.112;2023-05-02T01:03:50;7.90;;;7.20;;
9524;SDS011;15940;48.734;9.112;2023-05-02T01:06:31;8.53;;;7.00;;
9524;SDS011;15940;48.734;9.112;2023-05-02T01:09:15;7.63;;;6.93;;
9524;SDS011;15940;48.734;9.112;2023-05-02T01:11:52;7.63;;;6.83;;
9524;SDS011;15940;48.734;9.112;2023-05-02T01:14:28;7.40;;;6.70;;
9524;SDS011;15940;48.734;9.112;2023-05-02T01:17:09;8.17;;;7.43;;
9524;SDS011;15940;48.734;9.112;2023-05-02T01:19:40;7.33;;;6.70;;
9524;SDS011;15940;48.734;9.112;2023-05-02T01:22:13;6.97;;;6.40;;
9524;SDS011;15940;48.734;9.112;2023-05-02T01:24:42;7.67;;;6.93;;
9524;SDS011;15940;48.734;9.112;2023-05-02T01:27:21;7.60;;;7.00;;
9524;SDS011;15940;48.734;9.112;2023-05-02T01:30:01;8.40;;;7.53;;
9524;SDS011;15940;48.734;9.112;2023-05-02T01:32:30;7.57;;;6.80;;
9524;SDS011;15940;48.734;9.112;2023-05-02T01:35:00;7.80;;;7.10;;
9524;SDS011;15940;48.734;9.112;2023-05-02T01:37:28;8.00;;;7.27;;
9524;SDS011;15940;48.734;9.112;2023-05-02T01:39:55;7.30;;;6.60;;
9524;SDS011;15940;48.734;9.112;2023-05-02T01:42:24;7.13;;;6.43;;
9524;SDS011;15940;48.734;9.112;2023-05-02T01:44:51;7.43;;;6.73;;
9524;SDS011;15940;48.734;9.112;2023-05-02T01:47:22;8.07;;;7.03;;
9524;SDS011;15940;48.734;9.112;2023-05-02T01:49:50;7.63;;;6.93;;
9524;SDS011;15940;48.734;9.112;2023-05-02T01:52:18;7.20;;;6.60;;
9524;SDS011;15940;48.734;9.112;2023-05-02T01:54:47;7.53;;;6.83;;
9524;SDS011;15940;48.734;9.112;2023-05-02T01:57:17;7.57;;;6.90;;
9524;SDS011;15940;48.734;9.112;2023-05-02T01:59:44;7.93;;;6.83;;
9524;SDS011;15940;48.734;9.112;2023-05-02T02:02:14;7.83;;;7.13;;
9524;SDS011;15940;48.734;9.112;2023-05-02T02:04:44;7.20;;;6.60;;
9524;SDS011;15940;48.734;9.112;2023-05-02T02:07:12;7.63;;;6.83;;
9524;SDS011;15940;48.734;9.112;2023-05-02T02:09:39;8.20;;;7.30;;
9524;SDS011;15940;48.734;9.112;2023-05-02T02:12:07;8.37;;;7.30;;
9524;SDS011;15940;48.734;9.112;2023-05-02T02:14:42;7.70;;;7.00;;
9524;SDS011;15940;48.734;9.112;2023-05-02T02:17:26;8.17;;;7.30;;
9524;SDS011;15940;48.734;9.112;2023-05-02T02:20:10;7.90;;;6.70;;
9524;SDS011;15940;48.734;9.112;2023-05-02T02:22:39;8.40;;;7.23;;
9524;SDS011;15940;48.734;9.112;2023-05-02T02:25:09;8.50;;;7.63;;
9524;SDS011;15940;48.734;9.112;2023-05-02T02:27:39;7.80;;;7.10;;
9524;SDS011;15940;48.734;9.112;2023-05-02T02:30:07;7.70;;;7.07;;
9524;SDS011;15940;48.734;9.112;2023-05-02T02:32:35;8.57;;;7.03;;
9524;SDS011;15940;48.734;9.112;2023-05-02T02:35:02;7.80;;;7.07;;
9524;SDS011;15940;48.734;9.112;2023-05-02T02:37:32;8.73;;;7.93;;
9524;SDS011;15940;48.734;9.112;2023-05-02T02:40:04;7.57;;;6.77;;
9524;SDS011;15940;48.734;9.112;2023-05-02T02:42:43;8.10;;;7.30;;
9524;SDS011;15940;48.734;9.112;2023-05-02T02:45:19;8.10;;;7.40;;
9524;SDS011;15940;48.734;9.112;2023-05-02T02:48:01;7.40;;;6.80;;
9524;SDS011;15940;48.734;9.112;2023-05-02T02:50:41;7.50;;;6.87;;
9524;SDS011;15940;48.734;9.112;2023-05-02T02:53:24;7.83;;;7.13;;
9524;SDS011;15940;48.734;9.112;2023-05-02T02:55:56;7.80;;;7.10;;
9524;SDS011;15940;48.734;9.112;2023-05-02T02:58:30;7.43;;;6.60;;
9524;SDS011;15940;48.734;9.112;2023-05-02T03:01:10;7.77;;;7.07;;
9524;SDS011;15940;48.734;9.112;2023-05-02T03:03:43;8.13;;;7.43;;
9524;SDS011;15940;48.734;9.112;2023-05-02T03:06:11;7.77;;;7.07;;
9524;SDS011;15940;48.734;9.112;2023-05-02T03:08:40;7.40;;;6.80;;
9524;SDS011;15940;48.734;9.112;2023-05-02T03:11:08;7.80;;;7.13;;
9524;SDS011;15940;48.734;9.112;2023-05-02T03:13:35;7.90;;;7.10;;
9524;SDS011;15940;48.734;9.112;2023-05-02T03:16:15;7.43;;;6.73;;
9524;SDS011;15940;48.734;9.112;2023-05-02T03:18:59;7.80;;;7.10;;
9524;SDS011;15940;48.734;9.112;2023-05-02T03:21:25;7.57;;;6.93;;
9524;SDS011;15940;48.734;9.112;2023-05-02T03:23:56;7.67;;;6.97;;
9524;SDS011;15940;48.734;9.112;2023-05-02T03:26:24;7.10;;;6.40;;
9524;SDS011;15940;48.734;9.112;2023-05-02T03:28:51;7.27;;;6.57;;
9524;SDS011;15940;48.734;9.112;2023-05-02T03:31:18;7.27;;;6.67;;
9524;SDS011;15940;48.734;9.112;2023-05-02T03:33:45;7.47;;;6.87;;
9524;SDS011;15940;48.734;9.112;2023-05-02T03:36:12;6.93;;;6.33;;
9524;SDS011;15940;48.734;9.112;2023-05-02T03:38:40;7.50;;;6.90;;
9524;SDS011;15940;48.734;9.112;2023-05-02T03:41:08;7.97;;;7.17;;
9524;SDS011;15940;48.734;9.112;2023-05-02T03:43:35;8.10;;;7.40;;
9524;SDS011;15940;48.734;9.112;2023-05-02T03:46:05;8.63;;;7.83;;
9524;SDS011;15940;48.734;9.112;2023-05-02T03:48:35;8.03;;;7.23;;
9524;SDS011;15940;48.734;9.112;2023-05-02T03:51:03;7.90;;;7.20;;
9524;SDS011;15940;48.734;9.112;2023-05-02T03:53:33;8.27;;;7.47;;
9524;SDS011;15940;48.734;9.112;2023-05-02T03:56:01;7.60;;;6.93;;
9524;SDS011;15940;48.734;9.112;2023-05-02T03:58:29;8.20;;;7.47;;
9524;SDS011;15940;48.734;9.112;2023-05-02T04:00:56;8.37;;;7.63;;
9524;SDS011;15940;48.734;9.112;2023-05-02T04:03:23;8.00;;;7.30;;
9524;SDS011;15940;48.734;9.112;2023-05-02T04:05:50;8.20;;;7.50;;
9524;SDS011;15940;48.734;9.112;2023-05-02T04:08:17;8.80;;;7.60;;
9524;SDS011;15940;48.734;9.112;2023-05-02T04:10:44;8.47;;;7.77;;
9524;SDS011;15940;48.734;9.112;2023-05-02T04:13:11;9.30;;;7.47;;
9524;SDS011;15940;48.734;9.112;2023-05-02T04:15:39;8.17;;;7.37;;
9524;SDS011;15940;48.734;9.112;2023-05-02T04:18:06;7.60;;;7.00;;
9524;SDS011;15940;48.734;9.112;2023-05-02T04:20:33;7.80;;;7.10;;
9524;SDS011;15940;48.734;9.112;2023-05-02T04:23:00;8.03;;;7.33;;
9524;SDS011;15940;48.734;9.112;2023-05-02T04:25:27;8.20;;;7.50;;
9524;SDS011;15940;48.734;9.112;2023-05-02T04:27:54;8.13;;;7.33;;
9524;SDS011;15940;48.734;9.112;2023-05-02T04:30:21;7.73;;;7.13;;
9524;SDS011;15940;48.734;9.112;2023-05-02T04:32:50;8.07;;;7.27;;
9524;SDS011;15940;48.734;9.112;2023-05-02T04:35:17;7.83;;;7.13;;
9524;SDS011;15940;48.734;9.112;2023-05-02T04:37:44;8.20;;;7.50;;
9524;SDS011;15940;48.734;9.112;2023-05-02T04:40:12;9.43;;;7.30;;
9524;SDS011;15940;48.734;9.112;2023-05-02T04:42:39;7.83;;;7.03;;
9524;SDS011;15940;48.734;9.112;2023-05-02T04:45:06;8.03;;;7.33;;
9524;SDS011;15940;48.734;9.112;2023-05-02T04:47:34;8.10;;;7.40;;
9524;SDS011;15940;48.734;9.112;2023-05-02T04:50:03;8.00;;;7.30;;
9524;SDS011;15940;48.734;9.112;2023-05-02T04:52:31;7.93;;;7.23;;
9524;SDS011;15940;48.734;9.112;2023-05-02T04:54:58;8.77;;;7.90;;
9524;SDS011;15940;48.734;9.112;2023-05-02T04:57:25;7.27;;;6.67;;
9524;SDS011;15940;48.734;9.112;2023-05-02T04:59:52;7.60;;;6.83;;
9524;SDS011;15940;48.734;9.112;2023-05-02T05:02:19;7.43;;;6.73;;
9524;SDS011;15940;48.734;9.112;2023-05-02T05:04:46;7.80;;;7.00;;
9524;SDS011;15940;48.734;9.112;2023-05-02T05:07:14;7.77;;;6.90;;
9524;SDS011;15940;48.734;9.112;2023-05-02T05:09:41;7.07;;;6.47;;
9524;SDS011;15940;48.734;9.112;2023-05-02T05:12:08;8.57;;;7.50;;
9524;SDS011;15940;48.734;9.112;2023-05-02T05:14:35;8.07;;;7.27;;
9524;SDS011;15940;48.734;9.112;2023-05-02T05:17:02;7.83;;;7.20;;
9524;SDS011;15940;48.734;9.112;2023-05-02T05:19:29;8.13;;;7.33;;
9524;SDS011;15940;48.734;9.112;2023-05-02T05:21:56;7.87;;;6.87;;
9524;SDS011;15940;48.734;9.112;2023-05-02T05:24:24;7.80;;;7.10;;
9524;SDS011;15940;48.734;9.112;2023-05-02T05:26:51;7.50;;;6.80;;
9524;SDS011;15940;48.734;9.112;2023-05-02T05:29:18;7.07;;;6.47;;
9524;SDS011;15940;48.734;9.112;2023-05-02T05:31:45;7.57;;;6.87;;
9524;SDS011;15940;48.734;9.112;2023-05-02T05:34:12;7.23;;;6.57;;
9524;SDS011;15940;48.734;9.112;2023-05-02T05:36:39;7.40;;;6.80;;
9524;SDS011;15940;48.734;9.112;2023-05-02T05:39:06;7.10;;;6.40;;
9524;SDS011;15940;48.734;9.112;2023-05-02T05:41:35;7.60;;;6.90;;
9524;SDS011;15940;48.734;9.112;2023-05-02T05:44:02;6.93;;;6.33;;
9524;SDS011;15940;48.734;9.112;2023-05-02T05:46:30;9.47;;;6.73;;
9524;SDS011;15940;48.734;9.112;2023-05-02T05:48:57;8.70;;;7.27;;
9524;SDS011;15940;48.734;9.112;2023-05-02T05:51:24;7.77;;;7.07;;
9524;SDS011;15940;48.734;9.112;2023-05-02T05:53:52;8.47;;;7.67;;
9524;SDS011;15940;48.734;9.112;2023-05-02T05:56:19;7.80;;;7.10;;
9524;SDS011;15940;48.734;9.112;2023-05-02T05:58:48;8.00;;;7.30;;
9524;SDS011;15940;48.734;9.112;2023-05-02T06:01:15;8.30;;;7.43;;
9524;SDS011;15940;48.734;9.112;2023-05-02T06:03:42;8.57;;;7.80;;
9524;SDS011;15940;48.734;9.112;2023-05-02T06:06:09;9.30;;;8.43;;
9524;SDS011;15940;48.734;9.112;2023-05-02T06:08:36;9.17;;;8.37;;
9524;SDS011;15940;48.734;9.112;2023-05-02T06:11:06;9.90;;;8.90;;
9524;SDS011;15940;48.734;9.112;2023-05-02T06:13:35;10.33;;;8.77;;
9524;SDS011;15940;48.734;9.112;2023-05-02T06:16:04;9.30;;;8.50;;
9524;SDS011;15940;48.734;9.112;2023-05-02T06:18:31;9.13;;;8.33;;
9524;SDS011;15940;48.734;9.112;2023-05-02T06:21:02;9.67;;;8.63;;
9524;SDS011;15940;48.734;9.112;2023-05-02T06:23:29;11.40;;;10.27;;
9524;SDS011;15940;48.734;9.112;2023-05-02T06:25:57;11.17;;;10.00;;
9524;SDS011;15940;48.734;9.112;2023-05-02T06:28:25;11.17;;;10.17;;
9524;SDS011;15940;48.734;9.112;2023-05-02T06:30:55;11.53;;;10.23;;
9524;SDS011;15940;48.734;9.112;2023-05-02T06:33:25;11.13;;;10.00;;
9524;SDS011;15940;48.734;9.112;2023-05-02T06:35:52;11.63;;;10.53;;
9524;SDS011;15940;48.734;9.112;2023-05-02T06:38:19;11.60;;;10.60;;
9524;SDS011;15940;48.734;9.112;2023-05-02T06:40:47;12.17;;;10.80;;
9524;SDS011;15940;48.734;9.112;2023-05-02T06:43:14;12.23;;;11.03;;
9524;SDS011;15940;48.734;9.112;2023-05-02T06:45:42;12.53;;;11.37;;
9524;SDS011;15940;48.734;9.112;2023-05-02T06:48:09;11.70;;;10.10;;
9524;SDS011;15940;48.734;9.112;2023-05-02T06:50:38;12.10;;;11.10;;
9524;SDS011;15940;48.734;9.112;2023-05-02T06:53:05;13.10;;;11.77;;
9524;SDS011;15940;48.734;9.112;2023-05-02T06:55:32;12.90;;;11.23;;
9524;SDS011;15940;48.734;9.112;2023-05-02T06:57:59;13.80;;;12.43;;
9524;SDS011;15940;48.734;9.112;2023-05-02T07:00:26;15.27;;;13.87;;
9524;SDS011;15940;48.734;9.112;2023-05-02T07:02:53;14.43;;;12.90;;
9524;SDS011;15940;48.734;9.112;2023-05-02T07:05:20;14.80;;;12.60;;
9524;SDS011;15940;48.734;9.112;2023-05-02T07:07:48;14.30;;;12.93;;
9524;SDS011;15940;48.734;9.112;2023-05-02T07:10:15;13.57;;;12.30;;
9524;SDS011;15940;48.734;9.112;2023-05-02T07:12:42;17.90;;;13.20;;
9524;SDS011;15940;48.734;9.112;2023-05-02T07:15:09;15.83;;;14.23;;
9524;SDS011;15940;48.734;9.112;2023-05-02T07:17:37;17.00;;;15.30;;
9524;SDS011;15940;48.734;9.112;2023-05-02T07:20:05;16.07;;;14.53;;
9524;SDS011;15940;48.734;9.112;2023-05-02T07:22:34;16.60;;;14.83;;
9524;SDS011;15940;48.734;9.112;2023-05-02T07:25:02;16.80;;;15.10;;
9524;SDS011;15940;48.734;9.112;2023-05-02T07:27:30;17.43;;;15.60;;
9524;SDS011;15940;48.734;9.112;2023-05-02T07:29:57;18.80;;;16.87;;
9524;SDS011;15940;48.734;9.112;2023-05-02T07:32:23;17.20;;;15.40;;
9524;SDS011;15940;48.734;9.112;2023-05-02T07:34:51;18.70;;;16.80;;
9524;SDS011;15940;48.734;9.112;2023-05-02T07:37:20;19.73;;;17.73;;
9524;SDS011;15940;48.734;9.112;2023-05-02T07:39:47;20.53;;;18.63;;
9524;SDS011;15940;48.734;9.112;2023-05-02T07:42:15;19.70;;;17.73;;
9524;SDS011;15940;48.734;9.112;2023-05-02T07:44:42;19.43;;;17.53;;
9524;SDS011;15940;48.734;9.112;2023-05-02T07:47:09;20.87;;;18.67;;
9524;SDS011;15940;48.734;9.112;2023-05-02T07:49:36;19.63;;;17.60;;
9524;SDS011;15940;48.734;9.112;2023-05-02T07:52:03;20.47;;;18.57;;
9524;SDS011;15940;48.734;9.112;2023-05-02T07:54:30;20.60;;;18.40;;
9524;SDS011;15940;48.734;9.112;2023-05-02T07:56:57;22.27;;;19.93;;
9524;SDS011;15940;48.734;9.112;2023-05-02T07:59:28;20.37;;;18.37;;
9524;SDS011;15940;48.734;9.112;2023-05-02T08:01:56;20.07;;;17.97;;
9524;SDS011;15940;48.734;9.112;2023-05-02T08:04:23;18.33;;;16.57;;
9524;SDS011;15940;48.734;9.112;2023-05-02T08:06:50;20.73;;;18.37;;
9524;SDS011;15940;48.734;9.112;2023-05-02T08:09:17;21.37;;;19.07;;
9524;SDS011;15940;48.734;9.112;2023-05-02T08:11:43;21.60;;;19.30;;
9524;SDS011;15940;48.734;9.112;2023-05-02T08:14:10;22.27;;;19.93;;
9524;SDS011;15940;48.734;9.112;2023-05-02T08:16:39;23.77;;;21.47;;
9524;SDS011;15940;48.734;9.112;2023-05-02T08:19:06;24.30;;;21.90;;
9524;SDS011;15940;48.734;9.112;2023-05-02T08:21:33;25.00;;;22.30;;
9524;SDS011;15940;48.734;9.112;2023-05-02T08:24:00;26.87;;;22.53;;
9524;SDS011;15940;48.734;9.112;2023-05-02T08:26:27;25.83;;;23.10;;
9524;SDS011;15940;48.734;9.112;2023-05-02T08:28:54;31.50;;;23.87;;
9524;SDS011;15940;48.734;9.112;2023-05-02T08:31:21;25.50;;;22.80;;
9524;SDS011;15940;48.734;9.112;2023-05-02T08:33:49;29.50;;;24.57;;
9524;SDS011;15940;48.734;9.112;2023-05-02T08:36:17;22.70;;;20.30;;
9524;SDS011;15940;48.734;9.112;2023-05-02T08:38:44;26.17;;;23.47;;
9524;SDS011;15940;48.734;9.112;2023-05-02T08:41:12;27.47;;;24.67;;
9524;SDS011;15940;48.734;9.112;2023-05-02T08:43:41;27.60;;;24.83;;
9524;SDS011;15940;48.734;9.112;2023-05-02T08:46:09;27.37;;;22.13;;
9524;SDS011;15940;48.734;9.112;2023-05-02T08:48:37;24.67;;;22.37;;
9524;SDS011;15940;48.734;9.112;2023-05-02T08:51:09;24.20;;;21.80;;
9524;SDS011;15940;48.734;9.112;2023-05-02T08:53:39;22.57;;;20.27;;
9524;SDS011;15940;48.734;9.112;2023-05-02T08:56:07;22.50;;;20.13;;
9524;SDS011;15940;48.734;9.112;2023-05-02T08:58:35;23.80;;;21.50;;
9524;SDS011;15940;48.734;9.112;2023-05-02T09:01:08;22.00;;;19.90;;
9524;SDS011;15940;48.734;9.112;2023-05-02T09:03:38;21.33;;;19.13;;
9524;SDS011;15940;48.734;9.112;2023-05-02T09:06:05;21.53;;;19.37;;
9524;SDS011;15940;48.734;9.112;2023-05-02T09:08:36;22.33;;;20.00;;
9524;SDS011;15940;48.734;9.112;2023-05-02T09:11:05;21.27;;;18.83;;
9524;SDS011;15940;48.734;9.112;2023-05-02T09:13:34;19.87;;;17.93;;
9524;SDS011;15940;48.734;9.112;2023-05-02T09:16:03;18.87;;;17.07;;
9524;SDS011;15940;48.734;9.112;2023-05-02T09:18:32;18.87;;;17.07;;
9524;SDS011;15940;48.734;9.112;2023-05-02T09:21:02;20.57;;;18.47;;
9524;SDS011;15940;48.734;9.112;2023-05-02T09:23:37;18.87;;;17.07;;
9524;SDS011;15940;48.734;9.112;2023-05-02T09:26:19;18.07;;;16.10;;
9524;SDS011;15940;48.734;9.112;2023-05-02T09:28:47;16.83;;;15.23;;
9524;SDS011;15940;48.734;9.112;2023-05-02T09:31:16;16.60;;;15.00;;
9524;SDS011;15940;48.734;9.112;2023-05-02T09:33:44;18.43;;;16.60;;
9524;SDS011;15940;48.734;9.112;2023-05-02T09:36:12;18.00;;;16.03;;
9524;SDS011;15940;48.734;9.112;2023-05-02T09:38:42;18.50;;;16.60;;
9524;SDS011;15940;48.734;9.112;2023-05-02T09:41:10;17.63;;;15.93;;
9524;SDS011;15940;48.734;9.112;2023-05-02T09:43:38;17.13;;;15.43;;
9524;SDS011;15940;48.734;9.112;2023-05-02T09:46:06;18.40;;;16.13;;
9524;SDS011;15940;48.734;9.112;2023-05-02T09:48:50;18.07;;;16.20;;
9524;SDS011;15940;48.734;9.112;2023-05-02T09:51:18;17.17;;;14.57;;
9524;SDS011;15940;48.734;9.112;2023-05-02T09:53:47;17.17;;;15.40;;
9524;SDS011;15940;48.734;9.112;2023-05-02T09:56:15;16.13;;;14.53;;
9524;SDS011;15940;48.734;9.112;2023-05-02T09:58:43;17.30;;;15.57;;
9524;SDS011;15940;48.734;9.112;2023-05-02T10:01:13;15.40;;;13.93;;
9524;SDS011;15940;48.734;9.112;2023-05-02T10:03:41;14.13;;;12.83;;
9524;SDS011;15940;48.734;9.112;2023-05-02T10:06:12;17.43;;;15.83;;
9524;SDS011;15940;48.734;9.112;2023-05-02T10:08:41;18.03;;;16.17;;
9524;SDS011;15940;48.734;9.112;2023-05-02T10:11:11;17.77;;;15.77;;
9524;SDS011;15940;48.734;9.112;2023-05-02T10:13:39;16.13;;;14.50;;
9524;SDS011;15940;48.734;9.112;2023-05-02T10:16:09;17.43;;;15.63;;
9524;SDS011;15940;48.734;9.112;2023-05-02T10:18:39;17.63;;;16.07;;
9524;SDS011;15940;48.734;9.112;2023-05-02T10:21:11;17.37;;;15.53;;
9524;SDS011;15940;48.734;9.112;2023-05-02T10:23:41;15.00;;;13.63;;
9524;SDS011;15940;48.734;9.112;2023-05-02T10:26:11;15.87;;;13.87;;
9524;SDS011;15940;48.734;9.112;2023-05-02T10:28:41;15.67;;;14.07;;
9524;SDS011;15940;48.734;9.112;2023-05-02T10:31:09;16.10;;;14.43;;
9524;SDS011;15940;48.734;9.112;2023-05-02T10:33:38;15.43;;;13.93;;
9524;SDS011;15940;48.734;9.112;2023-05-02T10:36:06;15.63;;;14.10;;
9524;SDS011;15940;48.734;9.112;2023-05-02T10:38:37;17.30;;;14.00;;
9524;SDS011;15940;48.734;9.112;2023-05-02T10:41:06;13.80;;;12.37;;
9524;SDS011;15940;48.734;9.112;2023-05-02T10:43:46;11.77;;;10.67;;
9524;SDS011;15940;48.734;9.112;2023-05-02T10:46:29;13.60;;;12.20;;
9524;SDS011;15940;48.734;9.112;2023-05-02T10:49:04;13.10;;;11.87;;
9524;SDS011;15940;48.734;9.112;2023-05-02T10:51:33;12.80;;;11.47;;
9524;SDS011;15940;48.734;9.112;2023-05-02T10:57:04;12.03;;;10.87;;
9524;SDS011;15940;48.734;9.112;2023-05-02T11:02:00;15.33;;;11.63;;
9524;SDS011;15940;48.734;9.112;2023-05-02T11:07:28;11.10;;;10.00;;
9524;SDS011;15940;48.734;9.112;2023-05-02T11:12:52;12.07;;;10.83;;
9524;SDS011;15940;48.734;9.112;2023-05-02T11:18:26;14.37;;;10.80;;
9524;SDS011;15940;48.734;9.112;2023-05-02T11:21:25;12.70;;;10.80;;
9524;SDS011;15940;48.734;9.112;2023-05-02T11:30:04;12.83;;;11.63;;
9524;SDS011;15940;48.734;9.112;2023-05-02T11:35:42;14.27;;;12.77;;
9524;SDS011;15940;48.734;9.112;2023-05-02T11:38:11;14.17;;;12.80;;
9524;SDS011;15940;48.734;9.112;2023-05-02T11:40:51;13.67;;;12.27;;
9524;SDS011;15940;48.734;9.112;2023-05-02T11:43:21;14.70;;;12.83;;
9524;SDS011;15940;48.734;9.112;2023-05-02T11:45:50;19.23;;;17.13;;
9524;SDS011;15940;48.734;9.112;2023-05-02T11:48:18;13.50;;;12.30;;
9524;SDS011;15940;48.734;9.112;2023-05-02T11:50:49;13.80;;;12.40;;
9524;SDS011;15940;48.734;9.112;2023-05-02T11:53:19;13.73;;;12.43;;
9524;SDS011;15940;48.734;9.112;2023-05-02T11:55:48;13.63;;;12.33;;
9524;SDS011;15940;48.734;9.112;2023-05-02T11:58:18;13.00;;;11.80;;
9524;SDS011;15940;48.734;9.112;2023-05-02T12:00:47;14.20;;;12.90;;
9524;SDS011;15940;48.734;9.112;2023-05-02T12:03:28;24.23;;;18.13;;
9524;SDS011;15940;48.734;9.112;2023-05-02T12:06:07;31.57;;;22.23;;
9524;SDS011;15940;48.734;9.112;2023-05-02T12:08:36;19.53;;;17.33;;
9524;SDS011;15940;48.734;9.112;2023-05-02T12:11:03;18.47;;;16.67;;
9524;SDS011;15940;48.734;9.112;2023-05-02T12:13:30;18.17;;;16.47;;
9524;SDS011;15940;48.734;9.112;2023-05-02T12:15:58;17.17;;;15.57;;
9524;SDS011;15940;48.734;9.112;2023-05-02T12:18:25;16.67;;;15.17;;
9524;SDS011;15940;48.734;9.112;2023-05-02T12:20:53;37.80;;;24.40;;
9524;SDS011;15940;48.734;9.112;2023-05-02T12:23:23;30.17;;;18.57;;
9524;SDS011;15940;48.734;9.112;2023-05-02T12:25:51;28.87;;;20.83;;
9524;SDS011;15940;48.734;9.112;2023-05-02T12:28:18;31.87;;;21.93;;
9524;SDS011;15940;48.734;9.112;2023-05-02T12:30:48;17.23;;;14.77;;
9524;SDS011;15940;48.734;9.112;2023-05-02T12:33:16;18.00;;;16.10;;
9524;SDS011;15940;48.734;9.112;2023-05-02T12:35:43;16.50;;;14.87;;
9524;SDS011;15940;48.734;9.112;2023-05-02T12:38:12;19.50;;;17.50;;
9524;SDS011;15940;48.734;9.112;2023-05-02T12:40:48;19.47;;;17.57;;
9524;SDS011;15940;48.734;9.112;2023-05-02T12:43:17;20.57;;;18.37;;
9524;SDS011;15940;48.734;9.112;2023-05-02T12:45:45;18.80;;;17.00;;
9524;SDS011;15940;48.734;9.112;2023-05-02T12:48:16;18.43;;;16.63;;
9524;SDS011;15940;48.734;9.112;2023-05-02T12:50:47;16.17;;;14.63;;
9524;SDS011;15940;48.734;9.112;2023-05-02T12:53:14;17.27;;;15.47;;
9524;SDS011;15940;48.734;9.112;2023-05-02T12:55:41;16.63;;;14.93;;
9524;SDS011;15940;48.734;9.112;2023-05-02T12:58:10;19.97;;;17.80;;
9524;SDS011;15940;48.734;9.112;2023-05-02T13:00:39;19.50;;;17.60;;
9524;SDS011;15940;48.734;9.112;2023-05-02T13:03:07;16.63;;;15.03;;
9524;SDS011;15940;48.734;9.112;2023-05-02T13:05:35;18.17;;;15.27;;
9524;SDS011;15940;48.734;9.112;2023-05-02T13:08:02;21.03;;;17.10;;
9524;SDS011;15940;48.734;9.112;2023-05-02T13:10:30;21.00;;;18.93;;
9524;SDS011;15940;48.734;9.112;2023-05-02T13:12:57;18.53;;;16.70;;
9524;SDS011;15940;48.734;9.112;2023-05-02T13:15:27;16.27;;;13.83;;
9524;SDS011;15940;48.734;9.112;2023-05-02T13:17:54;16.13;;;13.70;;
9524;SDS011;15940;48.734;9.112;2023-05-02T13:20:20;16.50;;;14.80;;
9524;SDS011;15940;48.734;9.112;2023-05-02T13:22:47;16.17;;;14.67;;
9524;SDS011;15940;48.734;9.112;2023-05-02T13:25:14;16.30;;;14.70;;
9524;SDS011;15940;48.734;9.112;2023-05-02T13:27:41;17.10;;;15.40;;
9524;SDS011;15940;48.734;9.112;2023-05-02T13:30:10;17.60;;;15.90;;
9524;SDS011;15940;48.734;9.112;2023-05-02T13:32:38;18.47;;;16.47;;
9524;SDS011;15940;48.734;9.112;2023-05-02T13:35:06;16.57;;;14.90;;
9524;SDS011;15940;48.734;9.112;2023-05-02T13:37:37;15.67;;;14.17;;
9524;SDS011;15940;48.734;9.112;2023-05-02T13:40:05;15.67;;;14.03;;
9524;SDS011;15940;48.734;9.112;2023-05-02T13:42:34;17.17;;;15.50;;
9524;SDS011;15940;48.734;9.112;2023-05-02T13:45:01;17.47;;;15.03;;
9524;SDS011;15940;48.734;9.112;2023-05-02T13:47:29;17.97;;;15.00;;
9524;SDS011;15940;48.734;9.112;2023-05-02T13:49:57;18.77;;;15.13;;
9524;SDS011;15940;48.734;9.112;2023-05-02T13:52:24;16.50;;;14.80;;
9524;SDS011;15940;48.734;9.112;2023-05-02T13:54:51;14.60;;;13.30;;
9524;SDS011;15940;48.734;9.112;2023-05-02T13:57:18;16.20;;;13.83;;
9524;SDS011;15940;48.734;9.112;2023-05-02T13:59:45;14.90;;;13.50;;
9524;SDS011;15940;48.734;9.112;2023-05-02T14:02:12;15.53;;;14.00;;
9524;SDS011;15940;48.734;9.112;2023-05-02T14:04:39;16.17;;;14.57;;
9524;SDS011;15940;48.734;9.112;2023-05-02T14:07:07;15.10;;;13.50;;
9524;SDS011;15940;48.734;9.112;2023-05-02T14:09:35;14.87;;;13.47;;
9524;SDS011;15940;48.734;9.112;2023-05-02T14:12:02;14.60;;;13.20;;
9524;SDS011;15940;48.734;9.112;2023-05-02T14:14:30;14.33;;;12.93;;
9524;SDS011;15940;48.734;9.112;2023-05-02T14:16:57;13.87;;;12.47;;
9524;SDS011;15940;48.734;9.112;2023-05-02T14:19:26;14.03;;;12.63;;
9524;SDS011;15940;48.734;9.112;2023-05-02T14:21:52;13.40;;;12.00;;
9524;SDS011;15940;48.734;9.112;2023-05-02T14:24:21;13.07;;;11.77;;
9524;SDS011;15940;48.734;9.112;2023-05-02T14:26:48;13.67;;;12.27;;
9524;SDS011;15940;48.734;9.112;2023-05-02T14:29:15;12.93;;;11.70;;
9524;SDS011;15940;48.734;9.112;2023-05-02T14:31:42;12.33;;;11.13;;
9524;SDS011;15940;48.734;9.112;2023-05-02T14:34:10;12.53;;;11.30;;
9524;SDS011;15940;48.734;9.112;2023-05-02T14:36:37;11.10;;;9.93;;
9524;SDS011;15940;48.734;9.112;2023-05-02T14:39:04;12.47;;;11.17;;
9524;SDS011;15940;48.734;9.112;2023-05-02T14:41:32;11.93;;;10.70;;
9524;SDS011;15940;48.734;9.112;2023-05-02T14:43:59;12.00;;;10.90;;
9524;SDS011;15940;48.734;9.112;2023-05-02T14:46:26;11.33;;;10.17;;
9524;SDS011;15940;48.734;9.112;2023-05-02T14:48:53;12.83;;;9.60;;
9524;SDS011;15940;48.734;9.112;2023-05-02T14:51:20;12.57;;;10.20;;
9524;SDS011;15940;48.734;9.112;2023-05-02T14:53:46;10.07;;;9.13;;
9524;SDS011;15940;48.734;9.112;2023-05-02T14:56:14;10.17;;;9.10;;
9524;SDS011;15940;48.734;9.112;2023-05-02T14:58:43;12.03;;;9.13;;
9524;SDS011;15940;48.734;9.112;2023-05-02T15:01:14;12.07;;;10.87;;
9524;SDS011;15940;48.734;9.112;2023-05-02T15:03:42;10.53;;;9.43;;
9524;SDS011;15940;48.734;9.112;2023-05-02T15:06:11;9.20;;;8.30;;
9524;SDS011;15940;48.734;9.112;2023-05-02T15:08:39;11.47;;;9.43;;
9524;SDS011;15940;48.734;9.112;2023-05-02T15:11:06;10.20;;;9.20;;
9524;SDS011;15940;48.734;9.112;2023-05-02T15:13:34;14.30;;;10.77;;
9524;SDS011;15940;48.734;9.112;2023-05-02T15:16:03;10.27;;;9.23;;
9524;SDS011;15940;48.734;9.112;2023-05-02T15:18:31;10.20;;;9.20;;
9524;SDS011;15940;48.734;9.112;2023-05-02T15:20:58;11.80;;;10.37;;